createdAt,value
2022-11-13T00:01:25.326Z,104.50
2022-11-13T00:03:53.211Z,91.30
2022-11-13T00:06:21.509Z,94.90
2022-11-13T00:08:54.691Z,92.40
2022-11-13T00:11:25.776Z,83.40
2022-11-13T00:13:53.623Z,84.40
2022-11-13T00:16:22.014Z,88.30
2022-11-13T00:18:49.972Z,85.30
2022-11-13T00:21:21.894Z,83.60
2022-11-13T00:23:50.652Z,76.00
2022-11-13T00:26:25.373Z,79.70
2022-11-13T00:28:59.733Z,79.20
2022-11-13T00:31:28.920Z,74.40
2022-11-13T00:34:19.414Z,68.80
2022-11-13T00:36:48.399Z,76.00
2022-11-13T00:39:16.389Z,86.40
2022-11-13T00:41:44.387Z,94.10
2022-11-13T00:44:12.643Z,96.50
2022-11-13T00:46:40.523Z,76.30
2022-11-13T00:49:08.577Z,71.40
2022-11-13T00:51:36.386Z,71.10
2022-11-13T00:54:04.275Z,67.90
2022-11-13T00:56:32.133Z,69.10
2022-11-13T00:58:59.979Z,75.20
2022-11-13T01:01:27.966Z,80.30
2022-11-13T01:03:55.870Z,82.10
2022-11-13T01:06:26.481Z,91.50
2022-11-13T01:08:57.086Z,80.90
2022-11-13T01:11:28.175Z,76.60
2022-11-13T01:13:56.913Z,84.30
2022-11-13T01:16:27.353Z,90.80
2022-11-13T01:18:56.407Z,91.90
2022-11-13T01:21:27.527Z,89.20
2022-11-13T01:23:56.338Z,83.20
2022-11-13T01:26:28.755Z,80.90
2022-11-13T01:28:58.905Z,84.80
2022-11-13T01:31:30.669Z,61.10
2022-11-13T01:33:58.686Z,68.60
2022-11-13T01:36:29.149Z,60.40
2022-11-13T01:38:57.583Z,72.30
2022-11-13T01:41:29.544Z,64.60
2022-11-13T01:43:57.919Z,56.50
2022-11-13T01:46:30.267Z,52.70
2022-11-13T01:49:09.955Z,53.90
2022-11-13T01:51:56.538Z,47.90
2022-11-13T01:54:37.726Z,43.70
2022-11-13T01:57:05.947Z,41.60
2022-11-13T01:59:46.071Z,43.60
2022-11-13T02:02:14.009Z,39.30
2022-11-13T02:04:42.292Z,43.80
2022-11-13T02:07:16.025Z,44.70
2022-11-13T02:09:48.744Z,48.40
2022-11-13T02:12:25.796Z,44.50
2022-11-13T02:14:54.854Z,42.80
2022-11-13T02:17:31.353Z,39.00
2022-11-13T02:20:02.357Z,38.20
2022-11-13T02:22:36.578Z,40.60
2022-11-13T02:25:04.927Z,58.50
2022-11-13T02:27:46.586Z,51.30
2022-11-13T02:30:27.267Z,59.30
2022-11-13T02:32:57.703Z,48.90
2022-11-13T02:35:36.043Z,38.90
2022-11-13T02:38:05.869Z,37.00
2022-11-13T02:40:34.101Z,37.30
2022-11-13T02:43:01.960Z,34.50
2022-11-13T02:45:29.799Z,34.60
2022-11-13T02:48:00.784Z,34.10
2022-11-13T02:50:28.756Z,30.00
2022-11-13T02:52:56.879Z,31.80
2022-11-13T02:55:24.855Z,28.40
2022-11-13T02:57:52.604Z,30.90
2022-11-13T03:00:20.725Z,31.10
2022-11-13T03:02:48.865Z,36.20
2022-11-13T03:05:16.860Z,33.90
2022-11-13T03:07:44.689Z,36.30
2022-11-13T03:10:12.666Z,33.20
2022-11-13T03:12:40.959Z,30.90
2022-11-13T03:15:09.495Z,30.80
2022-11-13T03:17:37.361Z,37.80
2022-11-13T03:20:06.363Z,30.00
2022-11-13T03:22:36.880Z,32.70
2022-11-13T03:25:10.464Z,31.30
2022-11-13T03:27:39.003Z,28.70
2022-11-13T03:30:07.839Z,31.40
2022-11-13T03:32:35.974Z,32.80
2022-11-13T03:35:04.276Z,32.10
2022-11-13T03:37:32.276Z,34.60
2022-11-13T03:40:02.570Z,30.20
2022-11-13T03:42:32.829Z,32.30
2022-11-13T03:45:00.861Z,30.90
2022-11-13T03:47:28.811Z,29.20
2022-11-13T03:49:56.627Z,28.40
2022-11-13T03:52:24.565Z,31.80
2022-11-13T03:54:52.484Z,28.50
2022-11-13T03:57:20.303Z,27.80
2022-11-13T03:59:48.130Z,28.80
2022-11-13T04:02:16.426Z,34.80
2022-11-13T04:04:44.860Z,32.10
2022-11-13T04:07:12.711Z,29.60
2022-11-13T04:09:40.514Z,33.60
2022-11-13T04:12:08.346Z,34.30
2022-11-13T04:14:36.147Z,35.20
2022-11-13T04:17:04.063Z,35.90
2022-11-13T04:19:33.488Z,37.40
2022-11-13T04:22:01.428Z,29.30
2022-11-13T04:24:29.404Z,31.20
2022-11-13T04:26:57.405Z,30.20
2022-11-13T04:29:25.261Z,30.20
2022-11-13T04:31:53.075Z,39.10
2022-11-13T04:34:21.212Z,38.90
2022-11-13T04:36:49.134Z,33.20
2022-11-13T04:39:17.016Z,47.30
2022-11-13T04:42:03.601Z,38.30
2022-11-13T04:44:31.507Z,37.30
2022-11-13T04:46:59.506Z,37.70
2022-11-13T04:49:27.396Z,36.00
2022-11-13T04:51:55.313Z,34.60
2022-11-13T04:54:28.584Z,33.20
2022-11-13T04:56:56.872Z,32.70
2022-11-13T04:59:24.871Z,36.10
2022-11-13T05:01:52.760Z,31.80
2022-11-13T05:04:20.796Z,29.00
2022-11-13T05:06:48.716Z,32.60
2022-11-13T05:09:16.692Z,34.20
2022-11-13T05:11:44.565Z,28.80
2022-11-13T05:14:13.463Z,32.30
2022-11-13T05:16:41.370Z,33.30
2022-11-13T05:19:09.269Z,35.70
2022-11-13T05:21:38.893Z,37.30
2022-11-13T05:24:07.326Z,36.30
2022-11-13T05:26:40.453Z,35.80
2022-11-13T05:29:08.290Z,33.30
2022-11-13T05:31:36.206Z,36.80
2022-11-13T05:34:06.752Z,34.20
2022-11-13T05:36:34.723Z,35.20
2022-11-13T05:39:03.216Z,37.10
2022-11-13T05:41:31.094Z,37.40
2022-11-13T05:43:59.935Z,36.90
2022-11-13T05:46:29.698Z,37.90
2022-11-13T05:49:00.148Z,36.50
2022-11-13T05:51:34.241Z,37.80
2022-11-13T05:54:02.736Z,37.20
2022-11-13T05:56:36.725Z,38.10
2022-11-13T05:59:05.291Z,35.60
2022-11-13T06:01:39.578Z,37.50
2022-11-13T06:04:08.017Z,35.90
2022-11-13T06:06:35.882Z,34.80
2022-11-13T06:09:05.750Z,34.30
2022-11-13T06:11:33.835Z,35.00
2022-11-13T06:14:01.755Z,32.40
2022-11-13T06:16:35.526Z,34.30
2022-11-13T06:19:06.904Z,37.60
2022-11-13T06:21:39.891Z,33.60
2022-11-13T06:24:11.736Z,31.40
2022-11-13T06:26:39.956Z,36.40
2022-11-13T06:29:11.007Z,34.70
2022-11-13T06:31:38.993Z,32.90
2022-11-13T06:34:07.039Z,36.60
2022-11-13T06:36:36.876Z,35.50
2022-11-13T06:39:09.728Z,34.40
2022-11-13T06:41:39.153Z,31.40
2022-11-13T06:44:07.156Z,32.10
2022-11-13T06:46:35.251Z,27.00
2022-11-13T06:49:03.296Z,30.00
2022-11-13T06:51:31.470Z,29.90
2022-11-13T06:53:59.534Z,29.70
2022-11-13T06:56:27.315Z,30.20
2022-11-13T06:58:56.503Z,30.70
2022-11-13T07:01:27.031Z,31.70
2022-11-13T07:03:55.030Z,30.20
2022-11-13T07:06:24.587Z,29.70
2022-11-13T07:08:52.906Z,32.80
2022-11-13T07:11:23.245Z,30.20
2022-11-13T07:13:51.251Z,29.40
2022-11-13T07:16:19.403Z,27.80
2022-11-13T07:18:54.793Z,26.20
2022-11-13T07:21:22.904Z,26.00
2022-11-13T07:23:50.873Z,27.90
2022-11-13T07:26:19.537Z,30.60
2022-11-13T07:28:47.893Z,30.30
2022-11-13T07:31:17.732Z,28.20
2022-11-13T07:33:50.068Z,24.90
2022-11-13T07:36:18.195Z,27.60
2022-11-13T07:38:46.115Z,32.40
2022-11-13T07:41:14.414Z,29.50
2022-11-13T07:43:42.294Z,27.00
2022-11-13T07:46:12.767Z,27.30
2022-11-13T07:48:40.825Z,32.20
2022-11-13T07:51:08.639Z,34.00
2022-11-13T07:53:37.234Z,44.60
2022-11-13T07:56:05.654Z,34.90
2022-11-13T07:58:33.732Z,28.00
2022-11-13T08:01:06.392Z,24.90
2022-11-13T08:06:07.825Z,22.30
2022-11-13T08:08:35.843Z,25.10
2022-11-13T08:11:07.974Z,25.90
2022-11-13T08:13:36.965Z,21.90
2022-11-13T08:16:05.826Z,26.20
2022-11-13T08:18:34.981Z,20.90
2022-11-13T08:21:06.297Z,24.20
2022-11-13T08:23:37.131Z,21.20
2022-11-13T08:26:09.207Z,20.50
2022-11-13T08:28:37.023Z,19.00
2022-11-13T08:31:08.307Z,19.10
2022-11-13T08:33:36.363Z,19.10
2022-11-13T08:36:05.038Z,19.10
2022-11-13T08:38:32.908Z,13.70
2022-11-13T08:41:08.608Z,13.10
2022-11-13T08:43:37.566Z,11.90
2022-11-13T08:46:06.095Z,13.30
2022-11-13T08:48:34.903Z,10.70
2022-11-13T08:51:02.813Z,13.90
2022-11-13T08:53:30.909Z,10.90
2022-11-13T08:56:03.508Z,9.50
2022-11-13T08:58:32.202Z,7.50
2022-11-13T09:01:02.075Z,8.40
2022-11-13T09:03:30.882Z,10.50
2022-11-13T09:05:58.964Z,10.40
2022-11-13T09:08:27.597Z,10.40
2022-11-13T09:10:56.154Z,8.50
2022-11-13T09:13:24.463Z,12.90
2022-11-13T09:15:52.559Z,11.70
2022-11-13T09:18:20.863Z,11.60
2022-11-13T09:20:49.111Z,9.10
2022-11-13T09:23:19.229Z,15.80
2022-11-13T09:25:47.857Z,17.40
2022-11-13T09:28:15.881Z,17.40
2022-11-13T09:30:46.376Z,21.10
2022-11-13T09:35:44.638Z,20.90
2022-11-13T09:38:15.283Z,18.50
2022-11-13T09:40:58.782Z,16.80
2022-11-13T09:43:58.254Z,18.60
2022-11-13T09:46:53.067Z,16.60
2022-11-13T09:49:36.286Z,15.70
2022-11-13T09:52:16.709Z,18.00
2022-11-13T09:54:44.875Z,16.60
2022-11-13T09:57:41.608Z,15.90
2022-11-13T10:00:17.753Z,16.60
2022-11-13T10:03:39.524Z,16.50
2022-11-13T10:06:40.478Z,19.60
2022-11-13T10:09:30.308Z,24.30
2022-11-13T10:12:03.852Z,19.90
2022-11-13T10:14:48.361Z,23.40
2022-11-13T10:17:33.187Z,23.70
2022-11-13T10:20:34.429Z,24.10
2022-11-13T10:23:17.218Z,24.10
2022-11-13T10:25:45.356Z,29.60
2022-11-13T10:28:48.966Z,29.50
2022-11-13T10:31:12.899Z,28.40
2022-11-13T10:33:40.895Z,31.50
2022-11-13T10:36:36.742Z,34.60
2022-11-13T10:39:11.212Z,26.90
2022-11-13T10:41:51.647Z,29.90
2022-11-13T10:44:36.689Z,24.70
2022-11-13T10:47:08.220Z,25.00
2022-11-13T10:49:36.111Z,29.50
2022-11-13T10:52:08.518Z,30.20
2022-11-13T10:54:39.210Z,25.60
2022-11-13T10:57:37.715Z,23.00
2022-11-13T11:00:35.213Z,24.20
2022-11-13T11:03:03.231Z,26.70
2022-11-13T11:05:31.491Z,26.40
2022-11-13T11:08:03.043Z,23.10
2022-11-13T11:10:35.357Z,30.40
2022-11-13T11:13:22.920Z,26.90
2022-11-13T11:16:02.145Z,26.30
2022-11-13T11:18:41.927Z,26.50
2022-11-13T11:21:18.879Z,36.20
2022-11-13T11:24:06.906Z,34.50
2022-11-13T11:26:42.539Z,31.50
2022-11-13T11:29:27.332Z,38.40
2022-11-13T11:32:00.837Z,36.30
2022-11-13T11:34:48.955Z,42.50
2022-11-13T11:37:20.719Z,40.50
2022-11-13T11:40:15.916Z,45.10
2022-11-13T11:43:18.805Z,51.30
2022-11-13T11:45:48.067Z,61.70
2022-11-13T11:48:31.242Z,55.70
2022-11-13T11:51:32.603Z,58.00
2022-11-13T11:54:44.247Z,50.60
2022-11-13T11:57:36.432Z,57.30
2022-11-13T12:00:17.751Z,56.70
2022-11-13T12:03:13.616Z,54.90
2022-11-13T12:06:11.695Z,55.50
2022-11-13T12:09:00.324Z,56.50
2022-11-13T12:11:42.537Z,63.90
2022-11-13T12:14:37.531Z,61.30
2022-11-13T12:17:48.089Z,64.20
2022-11-13T12:20:43.275Z,62.50
2022-11-13T12:23:41.999Z,66.10
2022-11-13T12:26:20.002Z,72.10
2022-11-13T12:29:14.731Z,71.50
2022-11-13T12:32:18.079Z,67.70
2022-11-13T12:34:54.019Z,69.80
2022-11-13T12:37:58.843Z,70.30
2022-11-13T12:41:21.924Z,80.40
2022-11-13T12:44:20.456Z,77.70
2022-11-13T12:46:49.731Z,76.70
2022-11-13T12:49:23.814Z,73.60
2022-11-13T12:51:59.214Z,71.40
2022-11-13T12:54:36.545Z,67.00
2022-11-13T12:57:14.453Z,67.00
2022-11-13T12:59:46.937Z,65.60
2022-11-13T13:02:14.885Z,69.80
2022-11-13T13:05:18.122Z,74.90
2022-11-13T13:08:28.917Z,77.00
2022-11-13T13:11:15.272Z,68.80
2022-11-13T13:13:59.269Z,72.70
2022-11-13T13:16:29.668Z,71.50
2022-11-13T13:19:31.963Z,69.10
2022-11-13T13:21:59.884Z,72.40
2022-11-13T13:24:38.252Z,67.80
2022-11-13T13:27:27.811Z,79.80
2022-11-13T13:29:55.728Z,73.10
2022-11-13T13:32:36.811Z,70.60
2022-11-13T13:35:17.685Z,66.10
2022-11-13T13:38:03.013Z,68.90
2022-11-13T13:41:04.561Z,71.00
2022-11-13T13:43:58.217Z,80.60
2022-11-13T13:46:30.109Z,85.80
2022-11-13T13:49:09.607Z,78.70
2022-11-13T13:51:42.842Z,74.80
2022-11-13T13:54:19.146Z,71.40
2022-11-13T13:56:47.202Z,73.30
2022-11-13T13:59:37.340Z,70.80
2022-11-13T14:02:20.271Z,73.70
2022-11-13T14:07:29.911Z,76.20
2022-11-13T14:10:18.983Z,74.70
2022-11-13T14:12:47.376Z,74.60
2022-11-13T14:15:34.724Z,69.70
2022-11-13T14:18:15.023Z,76.00
2022-11-13T14:21:17.256Z,72.80
2022-11-13T14:23:51.262Z,75.90
2022-11-13T14:26:20.382Z,77.90
2022-11-13T14:28:58.306Z,79.80
2022-11-13T14:31:33.325Z,64.10
2022-11-13T14:34:08.670Z,70.60
2022-11-13T14:36:37.347Z,70.90
2022-11-13T14:39:05.274Z,72.60
2022-11-13T14:41:40.402Z,83.50
2022-11-13T14:44:11.827Z,87.50
2022-11-13T14:46:47.719Z,83.10
2022-11-13T14:49:27.722Z,72.70
2022-11-13T14:51:57.745Z,80.40
2022-11-13T14:55:08.018Z,81.00
2022-11-13T14:57:25.848Z,87.10
2022-11-13T14:59:53.713Z,83.60
2022-11-13T15:02:22.003Z,75.70
2022-11-13T15:04:49.833Z,73.50
2022-11-13T15:07:32.888Z,73.40
2022-11-13T15:12:29.254Z,85.10
2022-11-13T15:14:57.123Z,77.10
2022-11-13T15:17:25.036Z,80.90
2022-11-13T15:19:54.463Z,80.40
2022-11-13T15:22:27.646Z,86.70
2022-11-13T15:24:56.445Z,87.20
2022-11-13T15:27:25.732Z,88.90
2022-11-13T15:29:53.608Z,84.40
2022-11-13T15:32:21.553Z,91.70
2022-11-13T15:34:49.540Z,102.60
2022-11-13T15:37:17.536Z,97.50
2022-11-13T15:39:45.387Z,92.90
2022-11-13T15:42:16.866Z,99.70
2022-11-13T15:44:46.853Z,98.30
2022-11-13T15:47:36.460Z,102.00
2022-11-13T15:50:13.954Z,107.90
2022-11-13T15:52:50.721Z,101.90
2022-11-13T15:55:33.941Z,127.50
2022-11-13T15:58:02.570Z,110.30
2022-11-13T16:00:33.777Z,85.90
2022-11-13T16:03:04.451Z,94.80
2022-11-13T16:05:32.413Z,94.30
2022-11-13T16:08:00.563Z,99.00
2022-11-13T16:10:28.615Z,94.40
2022-11-13T16:12:56.805Z,103.80
2022-11-13T16:15:24.758Z,100.80
2022-11-13T16:17:56.280Z,120.80
2022-11-13T16:20:24.986Z,105.00
2022-11-13T16:22:53.821Z,107.60
2022-11-13T16:25:22.901Z,118.00
2022-11-13T16:27:51.749Z,125.10
2022-11-13T16:30:23.642Z,122.00
2022-11-13T16:32:52.114Z,107.80
2022-11-13T16:35:21.138Z,121.50
2022-11-13T16:37:49.470Z,104.60
2022-11-13T16:40:25.661Z,132.70
2022-11-13T16:42:54.744Z,114.00
2022-11-13T16:45:23.548Z,113.00
2022-11-13T16:47:51.911Z,109.90
2022-11-13T16:50:27.324Z,116.20
2022-11-13T16:52:56.844Z,95.30
2022-11-13T16:55:25.966Z,110.90
2022-11-13T16:57:54.881Z,108.80
2022-11-13T17:00:25.774Z,106.00
2022-11-13T17:02:54.307Z,112.30
2022-11-13T17:05:24.727Z,107.30
2022-11-13T17:07:58.496Z,108.70
2022-11-13T17:10:32.316Z,111.30
2022-11-13T17:13:01.400Z,129.00
2022-11-13T17:15:29.589Z,122.70
2022-11-13T17:17:59.385Z,113.40
2022-11-13T17:20:30.000Z,118.40
2022-11-13T17:22:59.271Z,114.90
2022-11-13T17:25:28.330Z,116.90
2022-11-13T17:27:56.399Z,120.00
2022-11-13T17:30:25.192Z,106.90
2022-11-13T17:32:59.331Z,112.70
2022-11-13T17:35:28.697Z,121.50
2022-11-13T17:37:57.129Z,107.10
2022-11-13T17:40:25.351Z,106.10
2022-11-13T17:42:53.613Z,109.30
2022-11-13T17:45:22.235Z,116.40
2022-11-13T17:47:51.249Z,121.30
2022-11-13T17:50:19.663Z,109.90
2022-11-13T17:52:48.691Z,106.60
2022-11-13T17:55:17.546Z,104.70
2022-11-13T17:57:45.934Z,122.20
2022-11-13T18:00:18.206Z,108.00
2022-11-13T18:02:47.095Z,108.40
2022-11-13T18:05:15.603Z,110.90
2022-11-13T18:07:44.335Z,104.10
2022-11-13T18:10:12.556Z,96.80
2022-11-13T18:12:40.691Z,103.70
2022-11-13T18:15:12.057Z,99.40
2022-11-13T18:17:43.574Z,104.10
2022-11-13T18:20:13.112Z,101.70
2022-11-13T18:22:41.132Z,103.50
2022-11-13T18:25:10.229Z,89.10
2022-11-13T18:27:39.106Z,101.50
2022-11-13T18:30:08.624Z,85.90
2022-11-13T18:32:37.134Z,95.50
2022-11-13T18:35:09.474Z,90.60
2022-11-13T18:37:37.464Z,86.70
2022-11-13T18:40:06.852Z,89.60
2022-11-13T18:42:37.043Z,90.20
2022-11-13T18:45:06.490Z,87.10
2022-11-13T18:47:34.656Z,86.90
2022-11-13T18:50:03.879Z,90.00
2022-11-13T18:52:32.915Z,85.80
2022-11-13T18:55:01.109Z,87.30
2022-11-13T18:57:29.081Z,104.30
2022-11-13T18:59:56.909Z,90.30
2022-11-13T19:02:25.082Z,92.60
2022-11-13T19:04:53.034Z,97.30
2022-11-13T19:07:21.144Z,82.80
2022-11-13T19:09:50.523Z,92.60
2022-11-13T19:12:18.493Z,94.10
2022-11-13T19:14:46.532Z,96.30
2022-11-13T19:17:14.785Z,97.90
2022-11-13T19:19:42.794Z,98.70
2022-11-13T19:22:10.737Z,104.10
2022-11-13T19:24:38.852Z,94.90
2022-11-13T19:27:07.350Z,99.90
2022-11-13T19:29:35.393Z,100.30
2022-11-13T19:32:03.340Z,97.20
2022-11-13T19:34:31.321Z,95.50
2022-11-13T19:36:59.558Z,93.60
2022-11-13T19:39:30.590Z,89.30
2022-11-13T19:41:58.808Z,94.10
2022-11-13T19:44:27.478Z,90.60
2022-11-13T19:46:55.492Z,90.60
2022-11-13T19:49:23.528Z,91.10
2022-11-13T19:51:51.482Z,98.40
2022-11-13T19:54:19.898Z,95.00
2022-11-13T19:56:47.894Z,93.90
2022-11-13T19:59:15.942Z,95.20
2022-11-13T20:01:46.093Z,97.50
2022-11-13T20:04:16.255Z,95.40
2022-11-13T20:06:44.801Z,92.50
2022-11-13T20:09:13.385Z,92.20
2022-11-13T20:11:41.941Z,91.00
2022-11-13T20:14:12.014Z,99.80
2022-11-13T20:16:40.550Z,106.30
2022-11-13T20:19:08.675Z,99.20
2022-11-13T20:21:37.374Z,104.10
2022-11-13T20:24:06.038Z,103.40
2022-11-13T20:26:34.099Z,97.60
2022-11-13T20:29:02.316Z,94.10
2022-11-13T20:31:32.654Z,103.60
2022-11-13T20:34:00.511Z,113.00
2022-11-13T20:36:28.686Z,124.00
2022-11-13T20:38:57.592Z,138.30
2022-11-13T20:41:25.672Z,135.00
2022-11-13T20:43:56.444Z,138.40
2022-11-13T20:46:24.488Z,136.30
2022-11-13T20:48:52.448Z,136.20
2022-11-13T20:51:23.960Z,135.20
2022-11-13T20:53:52.978Z,128.20
2022-11-13T20:56:23.553Z,128.10
2022-11-13T20:58:51.809Z,132.20
2022-11-13T21:01:23.505Z,138.00
2022-11-13T21:03:52.709Z,140.00
2022-11-13T21:06:23.370Z,133.00
2022-11-13T21:08:53.728Z,130.20
2022-11-13T21:11:25.551Z,130.40
2022-11-13T21:13:55.610Z,132.40
2022-11-13T21:16:27.814Z,121.90
2022-11-13T21:19:00.119Z,129.80
2022-11-13T21:21:29.208Z,128.10
2022-11-13T21:23:58.887Z,130.20
2022-11-13T21:26:29.680Z,127.00
2022-11-13T21:29:00.235Z,131.90
2022-11-13T21:31:28.023Z,126.80
2022-11-13T21:33:55.960Z,126.70
2022-11-13T21:36:26.961Z,131.20
2022-11-13T21:38:56.457Z,122.10
2022-11-13T21:41:25.431Z,134.10
2022-11-13T21:44:04.728Z,115.60
2022-11-13T21:46:36.821Z,121.50
2022-11-13T21:49:11.331Z,131.20
2022-11-13T21:51:42.325Z,128.50
2022-11-13T21:54:10.698Z,128.30
2022-11-13T21:56:39.155Z,135.00
2022-11-13T21:59:07.136Z,125.80
2022-11-13T22:01:38.544Z,125.40
2022-11-13T22:04:06.805Z,111.50
2022-11-13T22:06:40.129Z,115.10
2022-11-13T22:09:22.616Z,102.30
2022-11-13T22:11:50.613Z,118.60
2022-11-13T22:14:18.592Z,115.00
2022-11-13T22:16:47.615Z,121.30
2022-11-13T22:19:22.507Z,118.60
2022-11-13T22:21:54.098Z,116.60
2022-11-13T22:24:22.109Z,129.60
2022-11-13T22:26:50.180Z,119.40
2022-11-13T22:29:18.295Z,112.00
2022-11-13T22:31:46.787Z,110.20
2022-11-13T22:34:14.940Z,116.30
2022-11-13T22:36:42.811Z,105.70
2022-11-13T22:39:11.298Z,100.50
2022-11-13T22:41:39.276Z,112.90
2022-11-13T22:44:12.303Z,103.80
2022-11-13T22:46:40.296Z,114.90
2022-11-13T22:49:08.317Z,109.00
2022-11-13T22:51:41.135Z,112.00
2022-11-13T22:56:40.684Z,113.00
2022-11-13T22:59:12.545Z,104.80
2022-11-13T23:01:43.070Z,104.70
2022-11-13T23:04:13.881Z,106.80
2022-11-13T23:06:43.056Z,103.50
2022-11-13T23:09:11.307Z,107.20
2022-11-13T23:11:41.022Z,101.40
2022-11-13T23:14:13.042Z,110.50
2022-11-13T23:16:40.966Z,108.20
2022-11-13T23:19:09.448Z,108.40
2022-11-13T23:21:37.527Z,105.30
2022-11-13T23:24:06.132Z,107.10
2022-11-13T23:26:34.019Z,111.40
2022-11-13T23:29:02.056Z,115.70
2022-11-13T23:31:29.946Z,108.20
2022-11-13T23:33:57.881Z,103.80
2022-11-13T23:36:27.504Z,112.10
2022-11-13T23:38:56.042Z,109.90
2022-11-13T23:41:24.041Z,115.30
2022-11-13T23:44:09.532Z,109.40
2022-11-13T23:46:37.779Z,107.20
2022-11-13T23:49:05.954Z,104.80
2022-11-13T23:51:34.040Z,100.10
2022-11-13T23:54:02.051Z,105.90
2022-11-13T23:56:30.239Z,100.00
2022-11-13T23:58:58.099Z,113.50
